createdAt,value
2023-01-05T02:47:08.265Z,62.92
2023-01-05T02:48:11.575Z,62.79
2023-01-05T02:49:17.392Z,62.98
2023-01-05T02:50:52.345Z,63.67
2023-01-05T02:52:00.041Z,63.61
2023-01-05T02:53:19.573Z,62.15
2023-01-05T02:54:43.955Z,62.65
2023-01-05T02:56:02.525Z,63.13
2023-01-05T02:57:17.474Z,63.55
2023-01-05T02:58:34.516Z,62.43
2023-01-05T02:59:54.421Z,62.58
2023-01-05T03:01:11.048Z,63.13
2023-01-05T03:02:24.696Z,62.24
2023-01-05T03:03:54.975Z,62.13
2023-01-05T03:05:36.339Z,62.39
2023-01-05T03:06:56.742Z,62.91
2023-01-05T03:08:10.507Z,63.36
2023-01-05T03:09:20.709Z,62.56
2023-01-05T03:10:43.630Z,63.20
2023-01-05T03:12:22.719Z,64.49
2023-01-05T03:13:43.114Z,63.81
2023-01-05T03:15:08.749Z,63.37
2023-01-05T03:16:20.457Z,62.63
2023-01-05T03:17:35.859Z,62.98
2023-01-05T03:18:59.798Z,62.56
2023-01-05T03:20:06.690Z,62.86
2023-01-05T03:21:09.891Z,62.98
2023-01-05T03:22:48.552Z,63.53
2023-01-05T03:24:12.492Z,63.58
2023-01-05T03:25:38.741Z,63.18
2023-01-05T03:27:01.084Z,63.13
2023-01-05T03:28:25.610Z,63.65
2023-01-05T03:29:47.282Z,63.44
2023-01-05T03:31:36.078Z,63.97
2023-01-05T03:33:10.309Z,64.27
2023-01-05T03:35:15.563Z,65.27
2023-01-05T03:36:24.537Z,65.86
2023-01-05T03:37:53.902Z,65.86
2023-01-05T03:39:02.367Z,75.14
2023-01-05T03:40:17.056Z,81.69
2023-01-05T03:41:23.337Z,78.60
2023-01-05T03:42:28.997Z,68.50
2023-01-05T03:43:38.861Z,66.98
2023-01-05T03:44:46.454Z,66.39
2023-01-05T03:45:57.817Z,64.19
2023-01-05T03:47:03.636Z,65.88
2023-01-05T03:48:07.643Z,64.59
2023-01-05T03:49:11.460Z,65.55
2023-01-05T03:50:14.940Z,65.76
2023-01-05T03:51:18.529Z,65.05
2023-01-05T03:52:22.827Z,64.67
2023-01-05T03:53:26.346Z,64.92
2023-01-05T03:54:30.256Z,64.95
2023-01-05T03:55:33.539Z,65.87
2023-01-05T03:56:37.337Z,65.28
2023-01-05T03:57:41.652Z,64.49
2023-01-05T03:58:45.089Z,65.07
2023-01-05T03:59:48.278Z,65.13
2023-01-05T04:00:52.230Z,63.78
2023-01-05T04:01:58.088Z,64.67
2023-01-05T04:03:01.962Z,65.14
2023-01-05T04:04:05.122Z,65.27
2023-01-05T04:05:08.984Z,64.21
2023-01-05T04:06:13.196Z,64.29
2023-01-05T04:07:17.713Z,64.39
2023-01-05T04:08:20.907Z,63.97
2023-01-05T04:09:23.987Z,63.87
2023-01-05T04:10:27.264Z,64.38
2023-01-05T04:11:30.968Z,65.42
2023-01-05T04:12:39.009Z,64.07
2023-01-05T04:13:43.139Z,64.86
2023-01-05T04:14:46.397Z,63.63
2023-01-05T04:15:49.707Z,63.95
2023-01-05T04:16:52.809Z,64.51
2023-01-05T04:17:59.298Z,64.33
2023-01-05T04:19:02.524Z,64.33
2023-01-05T04:20:06.539Z,62.95
2023-01-05T04:21:10.524Z,63.26
2023-01-05T04:22:14.616Z,62.33
2023-01-05T04:23:19.615Z,62.52
2023-01-05T04:24:23.568Z,62.48
2023-01-05T04:25:26.744Z,62.92
2023-01-05T04:26:29.883Z,62.79
2023-01-05T04:27:33.150Z,63.11
2023-01-05T04:28:36.477Z,63.12
2023-01-05T04:29:39.648Z,63.01
2023-01-05T04:30:46.036Z,63.06
2023-01-05T04:31:49.223Z,62.08
2023-01-05T04:32:54.146Z,62.63
2023-01-05T04:33:57.735Z,62.77
2023-01-05T04:35:08.806Z,62.55
2023-01-05T04:36:16.013Z,62.51
2023-01-05T04:37:19.188Z,62.19
2023-01-05T04:38:22.812Z,62.82
2023-01-05T04:39:25.930Z,63.40
2023-01-05T04:40:30.166Z,63.03
2023-01-05T04:41:33.437Z,62.88
2023-01-05T04:42:36.618Z,62.81
2023-01-05T04:43:40.093Z,62.76
2023-01-05T04:44:43.591Z,62.30
2023-01-05T04:45:48.924Z,63.71
2023-01-05T04:46:52.686Z,64.45
2023-01-05T04:47:56.552Z,63.91
2023-01-05T04:48:59.702Z,63.40
2023-01-05T04:50:03.089Z,63.52
2023-01-05T04:51:06.440Z,64.28
2023-01-05T04:52:12.928Z,64.50
2023-01-05T04:53:16.157Z,64.54
2023-01-05T04:54:19.358Z,63.58
2023-01-05T04:55:23.327Z,64.19
2023-01-05T04:56:27.157Z,64.08
2023-01-05T04:57:30.434Z,63.65
2023-01-05T04:58:34.295Z,63.01
2023-01-05T04:59:38.123Z,63.35
2023-01-05T05:00:41.394Z,63.64
2023-01-05T05:01:44.814Z,63.60
2023-01-05T05:02:51.061Z,63.32
2023-01-05T05:03:55.083Z,63.47
2023-01-05T05:05:00.706Z,63.79
2023-01-05T05:06:04.194Z,64.16
2023-01-05T05:07:08.270Z,63.33
2023-01-05T05:08:11.453Z,64.40
2023-01-05T05:09:16.329Z,64.29
2023-01-05T05:10:19.689Z,63.90
2023-01-05T05:11:24.095Z,64.70
2023-01-05T05:12:27.682Z,64.68
2023-01-05T05:13:31.323Z,64.63
2023-01-05T05:14:36.603Z,63.72
2023-01-05T05:15:39.938Z,63.40
2023-01-05T05:16:44.267Z,63.24
2023-01-05T05:17:48.441Z,62.48
2023-01-05T05:18:53.084Z,64.26
2023-01-05T05:20:00.333Z,64.05
2023-01-05T05:21:04.025Z,63.75
2023-01-05T05:22:10.225Z,64.41
2023-01-05T05:23:13.590Z,64.06
2023-01-05T05:24:16.990Z,62.92
2023-01-05T05:25:22.235Z,63.77
2023-01-05T05:26:25.666Z,64.13
2023-01-05T05:27:30.762Z,63.54
2023-01-05T05:28:33.864Z,63.20
2023-01-05T05:29:36.966Z,63.24
2023-01-05T05:30:40.092Z,63.38
2023-01-05T05:31:43.373Z,63.44
2023-01-05T05:32:46.663Z,63.85
2023-01-05T05:33:49.817Z,63.70
2023-01-05T05:34:52.933Z,63.76
2023-01-05T05:35:56.138Z,62.97
2023-01-05T05:36:59.273Z,62.99
2023-01-05T05:38:02.391Z,62.71
2023-01-05T05:39:05.672Z,62.34
2023-01-05T05:40:09.793Z,61.18
2023-01-05T05:41:13.005Z,61.89
2023-01-05T05:42:16.189Z,60.44
2023-01-05T05:43:19.389Z,61.25
2023-01-05T05:44:22.505Z,61.30
2023-01-05T05:45:25.683Z,61.04
2023-01-05T05:46:29.190Z,60.86
2023-01-05T05:47:32.463Z,61.43
2023-01-05T05:48:35.621Z,61.96
2023-01-05T05:49:38.726Z,61.92
2023-01-05T05:50:41.767Z,62.13
2023-01-05T05:51:44.848Z,62.41
2023-01-05T05:52:48.112Z,61.30
2023-01-05T05:53:52.643Z,61.26
2023-01-05T05:54:55.803Z,61.41
2023-01-05T05:55:59.012Z,61.12
2023-01-05T05:57:02.136Z,60.65
2023-01-05T05:58:05.222Z,61.05
2023-01-05T05:59:08.354Z,61.19
2023-01-05T06:00:12.370Z,60.61
2023-01-05T06:01:18.349Z,61.22
2023-01-05T06:02:21.682Z,60.61
2023-01-05T06:03:25.082Z,61.02
2023-01-05T06:04:28.237Z,61.99
2023-01-05T06:05:31.515Z,61.43
2023-01-05T06:06:34.724Z,61.52
2023-01-05T06:07:37.895Z,60.90
2023-01-05T06:08:41.112Z,60.76
2023-01-05T06:09:44.215Z,60.37
2023-01-05T06:10:49.829Z,61.27
2023-01-05T06:11:52.935Z,60.65
2023-01-05T06:12:56.809Z,61.37
2023-01-05T06:14:00.368Z,60.22
2023-01-05T06:15:04.027Z,60.92
2023-01-05T06:16:07.789Z,59.96
2023-01-05T06:17:11.041Z,60.37
2023-01-05T06:18:14.247Z,61.15
2023-01-05T06:19:17.485Z,60.95
2023-01-05T06:20:20.786Z,61.01
2023-01-05T06:21:24.022Z,62.03
2023-01-05T06:22:27.089Z,62.21
2023-01-05T06:23:30.438Z,61.13
2023-01-05T06:24:33.630Z,61.40
2023-01-05T06:25:36.932Z,62.18
2023-01-05T06:26:40.108Z,62.06
2023-01-05T06:27:43.163Z,62.35
2023-01-05T06:28:46.371Z,62.15
2023-01-05T06:29:49.599Z,61.82
2023-01-05T06:30:52.700Z,62.48
2023-01-05T06:31:55.852Z,62.20
2023-01-05T06:32:59.106Z,61.92
2023-01-05T06:34:02.333Z,62.15
2023-01-05T06:35:06.493Z,62.09
2023-01-05T06:36:09.795Z,62.46
2023-01-05T06:37:13.248Z,61.63
2023-01-05T06:38:16.594Z,62.65
2023-01-05T06:39:19.824Z,62.08
2023-01-05T06:40:23.686Z,62.16
2023-01-05T06:41:26.768Z,62.29
2023-01-05T06:42:30.103Z,62.25
2023-01-05T06:43:33.165Z,62.74
2023-01-05T06:44:36.348Z,61.61
2023-01-05T06:45:39.591Z,62.56
2023-01-05T06:46:42.713Z,62.34
2023-01-05T06:47:45.756Z,61.75
2023-01-05T06:48:48.848Z,62.39
2023-01-05T06:49:51.919Z,62.49
2023-01-05T06:50:55.051Z,61.83
2023-01-05T06:51:58.140Z,62.41
2023-01-05T06:53:01.724Z,62.47
2023-01-05T06:54:04.772Z,62.01
2023-01-05T06:55:12.581Z,61.86
2023-01-05T06:56:15.726Z,63.06
2023-01-05T06:57:18.787Z,62.88
2023-01-05T06:58:21.848Z,61.89
2023-01-05T06:59:24.973Z,62.74
2023-01-05T07:00:28.828Z,62.07
2023-01-05T07:01:32.040Z,61.76
2023-01-05T07:02:35.462Z,62.64
2023-01-05T07:03:38.664Z,63.17
2023-01-05T07:04:41.774Z,61.80
2023-01-05T07:05:44.895Z,62.13
2023-01-05T07:06:48.155Z,61.98
2023-01-05T07:07:51.880Z,61.84
2023-01-05T07:08:55.239Z,61.78
2023-01-05T07:09:58.514Z,62.27
2023-01-05T07:11:01.570Z,62.92
2023-01-05T07:12:05.665Z,62.38
2023-01-05T07:13:08.902Z,60.46
2023-01-05T07:14:12.072Z,61.57
2023-01-05T07:15:15.294Z,62.29
2023-01-05T07:16:19.067Z,61.86
2023-01-05T07:17:22.178Z,61.78
2023-01-05T07:18:25.326Z,61.70
2023-01-05T07:19:28.453Z,61.38
2023-01-05T07:20:31.613Z,61.47
2023-01-05T07:21:34.821Z,62.05
2023-01-05T07:22:37.974Z,61.30
2023-01-05T07:23:41.123Z,61.27
2023-01-05T07:24:44.427Z,60.46
2023-01-05T07:25:47.574Z,60.68
2023-01-05T07:26:50.676Z,60.85
2023-01-05T07:27:53.790Z,60.39
2023-01-05T07:28:58.575Z,60.44
2023-01-05T07:30:01.677Z,61.28
2023-01-05T07:31:07.665Z,61.87
2023-01-05T07:32:10.981Z,62.30
2023-01-05T07:33:14.066Z,61.91
2023-01-05T07:34:17.155Z,61.77
2023-01-05T07:35:20.230Z,62.48
2023-01-05T07:36:24.032Z,61.93
2023-01-05T07:37:27.677Z,61.68
2023-01-05T07:38:33.073Z,61.98
2023-01-05T07:39:36.171Z,61.53
2023-01-05T07:40:39.284Z,60.65
2023-01-05T07:41:42.993Z,61.24
2023-01-05T07:42:52.177Z,61.58
2023-01-05T07:43:55.278Z,61.71
2023-01-05T07:44:58.739Z,61.36
2023-01-05T07:46:04.070Z,61.73
2023-01-05T07:47:07.472Z,60.57
2023-01-05T07:48:10.691Z,61.25
2023-01-05T07:49:13.992Z,60.16
2023-01-05T07:50:17.201Z,60.51
2023-01-05T07:51:22.282Z,60.70
2023-01-05T07:52:25.469Z,60.48
2023-01-05T07:53:30.883Z,60.92
2023-01-05T07:54:34.071Z,61.11
2023-01-05T07:55:37.418Z,60.30
2023-01-05T07:56:40.527Z,60.70
2023-01-05T07:57:43.909Z,61.40
2023-01-05T07:58:47.407Z,59.67
2023-01-05T07:59:50.633Z,60.35
2023-01-05T08:00:54.279Z,60.46
2023-01-05T08:01:57.576Z,60.12
2023-01-05T08:03:00.840Z,60.54
2023-01-05T08:04:04.194Z,59.86
2023-01-05T08:05:08.140Z,59.94
2023-01-05T08:06:15.169Z,59.07
2023-01-05T08:07:18.381Z,59.27
2023-01-05T08:08:24.524Z,58.85
2023-01-05T08:09:46.582Z,58.67
2023-01-05T08:10:49.695Z,60.03
2023-01-05T08:11:52.843Z,59.84
2023-01-05T08:13:20.032Z,58.96
2023-01-05T08:14:23.178Z,59.47
2023-01-05T08:15:26.332Z,58.05
2023-01-05T08:16:32.215Z,58.78
2023-01-05T08:17:35.322Z,58.46
2023-01-05T08:18:38.386Z,57.59
2023-01-05T08:19:41.525Z,58.71
2023-01-05T08:20:52.117Z,58.66
2023-01-05T08:21:55.176Z,58.37
2023-01-05T08:22:58.236Z,57.77
2023-01-05T08:24:01.309Z,58.45
2023-01-05T08:25:05.470Z,58.17
2023-01-05T08:26:15.970Z,58.32
2023-01-05T08:27:19.049Z,57.33
2023-01-05T08:28:29.940Z,58.06
2023-01-05T08:29:38.104Z,58.60
2023-01-05T08:30:41.525Z,58.95
2023-01-05T08:31:44.845Z,59.06
2023-01-05T08:32:48.275Z,58.34
2023-01-05T08:33:51.721Z,58.22
2023-01-05T08:34:55.692Z,57.97
2023-01-05T08:35:59.032Z,57.93
2023-01-05T08:37:02.300Z,57.56
2023-01-05T08:38:05.647Z,57.52
2023-01-05T08:39:11.814Z,57.24
2023-01-05T08:40:15.026Z,56.79
2023-01-05T08:41:31.369Z,57.59
2023-01-05T08:42:34.460Z,57.50
2023-01-05T08:43:37.585Z,56.93
2023-01-05T08:44:40.752Z,57.63
2023-01-05T08:45:48.555Z,57.35
2023-01-05T08:46:51.722Z,57.41
2023-01-05T08:47:54.965Z,57.46
2023-01-05T08:49:00.545Z,57.07
2023-01-05T08:50:03.863Z,56.27
2023-01-05T08:51:07.671Z,55.00
2023-01-05T08:52:11.024Z,54.53
2023-01-05T08:53:14.617Z,54.77
2023-01-05T08:54:17.837Z,54.12
2023-01-05T08:55:21.233Z,53.05
2023-01-05T08:56:26.303Z,53.17
2023-01-05T08:57:30.715Z,51.76
2023-01-05T08:58:33.954Z,51.74
2023-01-05T08:59:37.718Z,52.22
2023-01-05T09:00:40.982Z,52.74
2023-01-05T09:01:44.359Z,52.44
2023-01-05T09:02:48.500Z,52.25
2023-01-05T09:03:51.702Z,51.60
2023-01-05T09:04:54.815Z,52.10
2023-01-05T09:06:02.673Z,51.40
2023-01-05T09:07:05.979Z,52.21
2023-01-05T09:08:09.077Z,51.74
2023-01-05T09:09:12.354Z,51.35
2023-01-05T09:10:16.015Z,50.64
2023-01-05T09:11:25.439Z,50.75
2023-01-05T09:12:33.021Z,50.61
2023-01-05T09:13:36.997Z,50.61
2023-01-05T09:14:40.281Z,50.93
2023-01-05T09:15:43.462Z,49.87
2023-01-05T09:17:06.625Z,49.20
2023-01-05T09:18:09.835Z,49.66
2023-01-05T09:19:14.385Z,49.52
2023-01-05T09:20:17.953Z,48.69
2023-01-05T09:21:21.159Z,48.50
2023-01-05T09:22:24.292Z,48.83
2023-01-05T09:23:27.702Z,47.41
2023-01-05T09:24:30.815Z,47.99
2023-01-05T09:25:33.992Z,47.46
2023-01-05T09:26:37.031Z,47.29
2023-01-05T09:27:41.471Z,47.31
2023-01-05T09:28:45.434Z,47.27
2023-01-05T09:29:48.703Z,46.77
2023-01-05T09:30:51.992Z,47.52
2023-01-05T09:31:55.252Z,46.98
2023-01-05T09:32:58.457Z,46.88
2023-01-05T09:34:01.655Z,47.35
2023-01-05T09:35:05.228Z,47.18
2023-01-05T09:36:10.447Z,46.67
2023-01-05T09:37:13.694Z,46.70
2023-01-05T09:38:16.922Z,47.01
2023-01-05T09:39:21.911Z,46.73
2023-01-05T09:40:25.650Z,47.23
2023-01-05T09:41:40.695Z,47.94
2023-01-05T09:42:46.823Z,48.05
2023-01-05T09:44:23.065Z,46.72
2023-01-05T09:45:28.497Z,46.66
2023-01-05T09:46:39.942Z,46.84
2023-01-05T09:47:46.708Z,46.84
2023-01-05T09:48:56.451Z,46.95
2023-01-05T09:50:01.360Z,46.98
2023-01-05T09:51:04.621Z,46.70
2023-01-05T09:52:10.983Z,46.20
2023-01-05T09:53:17.819Z,46.65
2023-01-05T09:54:22.651Z,46.69
2023-01-05T09:55:31.683Z,46.62
2023-01-05T09:57:08.005Z,46.44
2023-01-05T09:58:16.355Z,46.49
2023-01-05T09:59:38.909Z,46.98
2023-01-05T10:01:02.423Z,46.32
2023-01-05T10:02:42.504Z,46.38
2023-01-05T10:04:09.244Z,46.26
2023-01-05T10:05:14.864Z,45.87
2023-01-05T10:06:30.012Z,45.27
2023-01-05T10:07:54.040Z,45.43
2023-01-05T10:08:57.377Z,45.31
2023-01-05T10:10:08.862Z,44.96
2023-01-05T10:12:18.385Z,45.76
2023-01-05T10:13:30.964Z,45.37
2023-01-05T10:15:13.949Z,45.27
2023-01-05T10:16:18.307Z,44.47
2023-01-05T10:17:41.233Z,44.24
2023-01-05T10:18:47.061Z,43.76
2023-01-05T10:19:51.209Z,43.14
2023-01-05T10:21:20.157Z,41.96
2023-01-05T10:23:31.137Z,42.44
2023-01-05T10:25:00.647Z,42.77
2023-01-05T10:26:51.078Z,42.51
2023-01-05T10:28:15.243Z,43.45
2023-01-05T10:29:53.239Z,43.40
2023-01-05T10:31:13.000Z,44.00
2023-01-05T10:32:50.097Z,44.73
2023-01-05T10:34:11.492Z,44.36
2023-01-05T10:35:58.965Z,44.50
2023-01-05T10:37:09.107Z,44.14
2023-01-05T10:38:33.785Z,45.09
2023-01-05T10:40:14.966Z,45.01
2023-01-05T10:41:41.206Z,45.81
2023-01-05T10:43:00.518Z,46.14
2023-01-05T10:44:28.186Z,45.96
2023-01-05T10:45:31.865Z,46.94
2023-01-05T10:46:45.900Z,47.56
2023-01-05T10:47:52.032Z,47.84
2023-01-05T10:48:55.272Z,47.80
2023-01-05T10:50:01.418Z,47.93
2023-01-05T10:51:06.339Z,48.66
2023-01-05T10:52:18.665Z,48.26
2023-01-05T10:53:26.751Z,48.10
2023-01-05T10:54:43.325Z,49.05
2023-01-05T10:55:52.307Z,48.75
2023-01-05T10:56:55.477Z,48.86
2023-01-05T10:57:58.843Z,48.68
2023-01-05T10:59:11.774Z,48.50
2023-01-05T11:00:18.332Z,48.44
2023-01-05T11:01:30.910Z,48.58
2023-01-05T11:02:47.235Z,48.65
2023-01-05T11:04:28.877Z,48.97
2023-01-05T11:05:35.160Z,49.13
2023-01-05T11:06:38.676Z,49.22
2023-01-05T11:08:01.377Z,49.68
2023-01-05T11:09:22.326Z,48.55
2023-01-05T11:10:48.077Z,47.82
2023-01-05T11:12:19.549Z,47.09
2023-01-05T11:13:33.479Z,46.90
2023-01-05T11:14:44.507Z,46.21
2023-01-05T11:15:56.629Z,46.48
2023-01-05T11:17:06.997Z,46.25
2023-01-05T11:18:36.311Z,46.13
2023-01-05T11:19:47.066Z,46.11
2023-01-05T11:21:16.705Z,45.12
2023-01-05T11:22:30.921Z,44.86
2023-01-05T11:23:50.099Z,44.06
2023-01-05T11:24:53.364Z,45.04
2023-01-05T11:26:37.552Z,44.70
2023-01-05T11:27:41.218Z,44.36
2023-01-05T11:28:59.420Z,43.55
2023-01-05T11:30:21.306Z,43.83
2023-01-05T11:31:53.872Z,43.33
2023-01-05T11:32:59.114Z,43.56
2023-01-05T11:34:18.212Z,43.42
2023-01-05T11:35:38.228Z,42.66
2023-01-05T11:36:42.990Z,42.35
2023-01-05T11:37:46.758Z,42.10
2023-01-05T11:38:57.063Z,41.85
2023-01-05T11:40:04.602Z,41.62
2023-01-05T11:41:12.099Z,41.80
2023-01-05T11:42:34.172Z,42.04
2023-01-05T11:43:38.242Z,41.79
2023-01-05T11:44:51.203Z,41.95
2023-01-05T11:45:59.584Z,42.46
2023-01-05T11:47:05.532Z,42.76
2023-01-05T11:48:09.052Z,42.58
2023-01-05T11:49:12.315Z,43.03
2023-01-05T11:50:25.376Z,42.68
2023-01-05T11:51:40.125Z,42.50
2023-01-05T11:52:52.404Z,42.62
2023-01-05T11:53:55.576Z,43.10
2023-01-05T11:54:58.965Z,42.79
2023-01-05T11:56:16.116Z,43.19
2023-01-05T11:57:25.043Z,43.30
2023-01-05T11:58:49.035Z,42.83
2023-01-05T11:59:52.220Z,43.40
2023-01-05T12:01:13.027Z,43.33
2023-01-05T12:02:56.129Z,43.62
2023-01-05T12:04:29.918Z,43.52
2023-01-05T12:05:54.863Z,43.90
2023-01-05T12:07:34.545Z,43.75
2023-01-05T12:09:12.084Z,43.36
2023-01-05T12:10:42.812Z,43.47
2023-01-05T12:12:26.311Z,44.25
2023-01-05T12:14:04.740Z,44.41
2023-01-05T12:15:56.013Z,44.01
2023-01-05T12:17:16.269Z,44.75
2023-01-05T12:18:39.581Z,45.22
2023-01-05T12:20:24.814Z,45.01
2023-01-05T12:22:15.331Z,45.26
2023-01-05T12:24:27.729Z,45.30
2023-01-05T12:25:52.103Z,45.03
2023-01-05T12:27:34.828Z,45.15
2023-01-05T12:34:32.984Z,44.39
2023-01-05T12:36:23.078Z,44.92
2023-01-05T12:37:28.829Z,44.62
2023-01-05T12:39:31.555Z,44.09
2023-01-05T12:40:59.812Z,45.17
2023-01-05T12:42:23.864Z,45.34
2023-01-05T12:44:01.935Z,45.93
2023-01-05T12:45:44.518Z,45.94
2023-01-05T12:47:34.356Z,46.61
2023-01-05T12:49:15.845Z,46.64
2023-01-05T12:50:35.934Z,46.32
2023-01-05T12:51:50.001Z,46.73
2023-01-05T12:53:02.359Z,46.76
2023-01-05T12:54:26.813Z,46.21
2023-01-05T12:55:42.164Z,46.76
2023-01-05T12:57:00.640Z,46.65
2023-01-05T12:58:54.259Z,47.00
2023-01-05T13:00:14.658Z,46.90
2023-01-05T13:01:25.874Z,46.92
2023-01-05T13:02:37.819Z,47.00
2023-01-05T13:03:55.988Z,46.70
2023-01-05T13:05:19.670Z,46.91
2023-01-05T13:06:24.834Z,47.08
2023-01-05T13:07:38.146Z,47.18
2023-01-05T13:08:49.762Z,47.00
2023-01-05T13:10:15.370Z,47.95
2023-01-05T13:11:23.795Z,47.47
2023-01-05T13:12:26.955Z,47.69
2023-01-05T13:14:09.552Z,48.54
2023-01-05T13:15:17.115Z,48.51
2023-01-05T13:16:39.151Z,47.87
2023-01-05T13:17:53.194Z,47.97
2023-01-05T13:19:22.866Z,47.31
2023-01-05T13:20:43.991Z,48.16
2023-01-05T13:21:48.625Z,48.03
2023-01-05T13:23:02.325Z,48.12
2023-01-05T13:24:52.423Z,48.47
2023-01-05T13:26:00.172Z,47.98
2023-01-05T13:27:04.381Z,48.75
2023-01-05T13:28:17.281Z,48.99
2023-01-05T13:29:41.922Z,49.04
2023-01-05T13:31:35.686Z,49.14
2023-01-05T13:33:06.090Z,48.99
2023-01-05T13:34:39.188Z,49.25
2023-01-05T13:36:17.747Z,48.42
2023-01-05T13:37:32.313Z,48.66
2023-01-05T13:39:22.263Z,49.50
2023-01-05T13:40:28.971Z,49.53
2023-01-05T13:41:31.976Z,49.53
2023-01-05T13:43:21.470Z,49.32
2023-01-05T13:44:27.479Z,49.32
2023-01-05T13:45:56.165Z,48.86
2023-01-05T13:47:32.049Z,49.12
2023-01-05T13:49:15.618Z,49.02
2023-01-05T13:51:00.104Z,49.15
2023-01-05T13:52:24.141Z,48.92
2023-01-05T13:53:30.104Z,49.31
2023-01-05T13:55:02.346Z,49.21
2023-01-05T13:56:20.557Z,49.25
2023-01-05T13:57:39.338Z,49.23
2023-01-05T13:58:59.791Z,49.00
2023-01-05T14:00:12.581Z,49.19
2023-01-05T14:01:44.334Z,48.87
2023-01-05T14:03:22.926Z,48.78
2023-01-05T14:04:33.402Z,49.15
2023-01-05T14:06:02.685Z,49.59
2023-01-05T14:07:14.711Z,49.12
2023-01-05T14:08:34.683Z,48.80
2023-01-05T14:09:43.891Z,49.01
2023-01-05T14:11:17.130Z,48.90
2023-01-05T14:12:20.321Z,49.30
2023-01-05T14:13:52.622Z,49.17
2023-01-05T14:15:24.050Z,49.10
2023-01-05T14:16:37.600Z,49.23
2023-01-05T14:17:52.981Z,49.29
2023-01-05T14:19:45.706Z,49.47
2023-01-05T14:20:56.335Z,49.20
2023-01-05T14:22:08.258Z,49.80
2023-01-05T14:23:23.563Z,50.13
2023-01-05T14:24:48.087Z,50.36
2023-01-05T14:25:58.350Z,50.81
2023-01-05T14:27:11.139Z,50.75
2023-01-05T14:28:25.900Z,50.67
2023-01-05T14:31:16.308Z,51.38
2023-01-05T14:32:39.536Z,51.45
2023-01-05T14:33:57.596Z,51.25
2023-01-05T14:35:37.181Z,51.11
2023-01-05T14:37:00.402Z,51.49
2023-01-05T14:38:14.533Z,51.71
2023-01-05T14:39:20.347Z,51.38
2023-01-05T14:40:29.270Z,51.44
2023-01-05T14:41:32.965Z,51.70
2023-01-05T14:42:43.791Z,51.67
2023-01-05T14:43:55.347Z,51.34
2023-01-05T14:45:24.667Z,50.90
2023-01-05T14:46:42.219Z,50.85
2023-01-05T14:47:52.757Z,50.50
2023-01-05T14:49:11.402Z,50.23
2023-01-05T14:50:29.664Z,50.02
2023-01-05T14:51:35.149Z,50.28
2023-01-05T14:53:14.931Z,50.83
2023-01-05T14:54:40.964Z,50.35
2023-01-05T14:55:52.871Z,50.55
2023-01-05T14:57:27.050Z,50.49
2023-01-05T14:58:36.418Z,50.34
2023-01-05T14:59:40.499Z,50.08
2023-01-05T15:01:03.175Z,50.27
2023-01-05T15:02:22.472Z,50.31
2023-01-05T15:03:45.771Z,50.29
2023-01-05T15:04:54.264Z,50.86
2023-01-05T15:06:18.500Z,51.04
2023-01-05T15:07:56.553Z,51.24
2023-01-05T15:09:37.057Z,51.14
2023-01-05T15:11:23.905Z,52.12
2023-01-05T15:12:48.250Z,52.21
2023-01-05T15:14:37.403Z,52.24
2023-01-05T15:15:49.997Z,51.96
2023-01-05T15:17:05.119Z,51.66
2023-01-05T15:18:43.230Z,51.64
2023-01-05T15:20:24.230Z,52.89
2023-01-05T15:21:35.656Z,53.13
2023-01-05T15:23:18.652Z,53.45
2023-01-05T15:24:51.927Z,53.75
2023-01-05T15:26:44.369Z,54.07
2023-01-05T15:28:11.916Z,54.70
2023-01-05T15:29:46.376Z,54.49
2023-01-05T15:31:30.553Z,55.05
2023-01-05T15:32:40.809Z,54.51
2023-01-05T15:33:55.350Z,54.73
2023-01-05T15:35:28.162Z,55.11
2023-01-05T15:36:40.734Z,54.86
2023-01-05T15:37:47.304Z,54.80
2023-01-05T15:38:50.472Z,55.00
2023-01-05T15:39:56.432Z,54.83
2023-01-05T15:41:08.967Z,54.88
2023-01-05T15:42:28.659Z,54.98
2023-01-05T15:43:33.407Z,55.33
2023-01-05T15:44:45.891Z,55.29
2023-01-05T15:45:53.432Z,56.09
2023-01-05T15:46:56.969Z,56.58
2023-01-05T15:48:28.755Z,56.68
2023-01-05T15:49:34.063Z,56.99
2023-01-05T15:50:58.692Z,57.01
2023-01-05T15:52:02.500Z,55.26
2023-01-05T15:53:05.654Z,55.68
2023-01-05T15:54:28.464Z,55.00
2023-01-05T15:55:31.695Z,54.89
2023-01-05T15:56:41.654Z,54.76
2023-01-05T15:58:04.196Z,53.73
2023-01-05T15:59:35.122Z,53.14
2023-01-05T16:00:38.281Z,54.54
2023-01-05T16:01:41.397Z,54.81
2023-01-05T16:02:45.085Z,55.25
2023-01-05T16:03:49.923Z,55.23
2023-01-05T16:05:22.718Z,55.23
2023-01-05T16:06:30.815Z,54.82
2023-01-05T16:07:33.971Z,54.74
2023-01-05T16:08:47.913Z,54.67
2023-01-05T16:09:51.167Z,54.32
2023-01-05T16:10:59.723Z,54.48
2023-01-05T16:12:24.279Z,53.30
2023-01-05T16:13:48.633Z,52.94
2023-01-05T16:15:04.988Z,53.30
2023-01-05T16:16:52.280Z,52.82
2023-01-05T16:17:58.176Z,52.92
2023-01-05T16:19:14.494Z,52.47
2023-01-05T16:20:25.006Z,51.90
2023-01-05T16:21:36.319Z,51.60
2023-01-05T16:22:55.143Z,51.71
2023-01-05T16:24:23.888Z,51.53
2023-01-05T16:25:32.462Z,51.71
2023-01-05T16:26:38.581Z,51.70
2023-01-05T16:27:46.184Z,51.68
2023-01-05T16:28:49.300Z,51.58
2023-01-05T16:29:52.776Z,51.68
2023-01-05T16:30:56.522Z,51.64
2023-01-05T16:32:00.132Z,51.73
2023-01-05T16:33:13.696Z,51.51
2023-01-05T16:34:20.703Z,51.55
2023-01-05T16:35:40.166Z,51.07
2023-01-05T16:36:59.413Z,51.21
2023-01-05T16:38:08.756Z,51.49
2023-01-05T16:39:24.851Z,51.81
2023-01-05T16:40:28.197Z,51.70
2023-01-05T16:41:51.439Z,51.52
2023-01-05T16:42:57.239Z,51.35
2023-01-05T16:44:03.578Z,51.82
2023-01-05T16:45:22.302Z,51.20
2023-01-05T16:46:39.795Z,51.26
2023-01-05T16:47:43.494Z,51.66
2023-01-05T16:49:26.298Z,51.03
2023-01-05T16:50:38.215Z,51.03
2023-01-05T16:51:42.819Z,51.62
2023-01-05T16:53:16.229Z,52.38
2023-01-05T16:54:28.018Z,52.00
2023-01-05T16:55:38.436Z,52.68
2023-01-05T16:56:58.277Z,52.18
2023-01-05T16:58:04.862Z,52.02
2023-01-05T16:59:32.302Z,52.23
2023-01-05T17:00:38.265Z,51.73
2023-01-05T17:01:45.224Z,51.78
2023-01-05T17:02:49.509Z,52.11
2023-01-05T17:03:53.384Z,52.50
2023-01-05T17:04:57.049Z,53.23
2023-01-05T17:06:01.332Z,53.34
2023-01-05T17:07:04.595Z,53.93
2023-01-05T17:08:23.352Z,54.61
2023-01-05T17:09:32.318Z,54.45
2023-01-05T17:10:35.648Z,54.77
2023-01-05T17:11:39.266Z,54.43
2023-01-05T17:12:42.539Z,54.61
2023-01-05T17:13:54.436Z,54.80
2023-01-05T17:15:02.503Z,55.42
2023-01-05T17:16:06.211Z,56.04
2023-01-05T17:17:13.511Z,56.29
2023-01-05T17:18:26.552Z,57.01
2023-01-05T17:19:29.797Z,56.81
2023-01-05T17:20:40.987Z,57.07
2023-01-05T17:21:55.255Z,57.30
2023-01-05T17:22:58.446Z,57.00
2023-01-05T17:24:01.896Z,57.50
2023-01-05T17:25:09.761Z,57.39
2023-01-05T17:26:38.344Z,57.03
2023-01-05T17:27:42.270Z,57.06
2023-01-05T17:28:45.557Z,56.83
2023-01-05T17:29:48.757Z,56.54
2023-01-05T17:30:53.333Z,56.63
2023-01-05T17:31:56.857Z,56.32
2023-01-05T17:33:00.104Z,56.68
2023-01-05T17:34:03.503Z,57.33
2023-01-05T17:37:23.667Z,56.92
2023-01-05T17:38:26.746Z,56.60
2023-01-05T17:40:38.385Z,56.39
2023-01-05T17:41:42.044Z,56.73
2023-01-05T17:42:46.617Z,56.33
2023-01-05T17:43:49.779Z,55.92
2023-01-05T17:44:52.935Z,56.22
2023-01-05T17:45:57.010Z,55.89
2023-01-05T17:47:00.149Z,55.64
2023-01-05T17:48:03.449Z,55.25
2023-01-05T17:49:14.536Z,55.45
2023-01-05T17:51:38.795Z,54.86
2023-01-05T17:52:42.059Z,54.29
2023-01-05T17:53:45.159Z,54.29
2023-01-05T17:54:48.266Z,54.13
2023-01-05T17:55:51.376Z,54.07
2023-01-05T17:56:54.535Z,53.93
2023-01-05T17:57:58.869Z,53.84
2023-01-05T17:59:03.476Z,53.48
2023-01-05T18:00:11.151Z,53.56
2023-01-05T18:01:14.614Z,53.70
2023-01-05T18:02:17.780Z,53.73
2023-01-05T18:03:24.168Z,53.96
2023-01-05T18:04:28.750Z,54.46
2023-01-05T18:05:32.118Z,54.18
2023-01-05T18:06:35.320Z,54.37
2023-01-05T18:07:39.819Z,54.40
2023-01-05T18:09:51.466Z,54.73
2023-01-05T18:10:54.718Z,55.09
2023-01-05T18:11:58.073Z,54.93
2023-01-05T18:13:01.215Z,54.55
2023-01-05T18:14:04.501Z,55.05
2023-01-05T18:15:08.554Z,54.99
2023-01-05T18:16:13.127Z,55.06
2023-01-05T18:17:16.269Z,54.27
2023-01-05T18:18:21.342Z,54.87
2023-01-05T18:19:24.852Z,54.85
2023-01-05T18:20:30.136Z,54.91
2023-01-05T18:21:35.799Z,53.86
2023-01-05T18:22:39.710Z,54.23